createdAt,value
2023-03-29T00:02:29.605Z,80.31
2023-03-29T00:04:57.309Z,79.56
2023-03-29T00:07:25.514Z,78.67
2023-03-29T00:09:52.572Z,77.86
2023-03-29T00:12:19.709Z,77.84
2023-03-29T00:14:46.759Z,77.30
2023-03-29T00:17:13.803Z,77.39
2023-03-29T00:19:42.787Z,76.62
2023-03-29T00:22:09.750Z,76.56
2023-03-29T00:24:36.823Z,75.99
2023-03-29T00:27:04.066Z,75.60
2023-03-29T00:29:32.036Z,74.75
2023-03-29T00:31:59.002Z,75.09
2023-03-29T00:34:31.368Z,74.76
2023-03-29T00:36:58.516Z,74.93
2023-03-29T00:39:27.444Z,76.29
2023-03-29T00:41:55.488Z,75.87
2023-03-29T00:44:41.370Z,75.09
2023-03-29T00:47:08.322Z,74.53
2023-03-29T00:49:35.579Z,73.89
2023-03-29T00:52:03.146Z,73.41
2023-03-29T00:54:30.298Z,74.91
2023-03-29T00:56:57.766Z,74.06
2023-03-29T00:59:28.030Z,73.51
2023-03-29T01:02:01.837Z,73.28
2023-03-29T01:04:32.390Z,74.50
2023-03-29T01:07:02.381Z,74.82
2023-03-29T01:09:30.739Z,74.43
2023-03-29T01:12:01.265Z,75.70
2023-03-29T01:14:52.163Z,76.47
2023-03-29T01:17:21.281Z,75.91
2023-03-29T01:19:53.499Z,75.94
2023-03-29T01:22:25.539Z,76.09
2023-03-29T01:24:52.589Z,76.74
2023-03-29T01:27:22.370Z,75.84
2023-03-29T01:29:53.641Z,76.72
2023-03-29T01:32:27.481Z,76.74
2023-03-29T01:34:58.266Z,76.06
2023-03-29T01:37:33.915Z,76.87
2023-03-29T01:40:01.071Z,76.33
2023-03-29T01:42:37.846Z,75.08
2023-03-29T01:45:05.405Z,75.15
2023-03-29T01:47:46.196Z,74.03
2023-03-29T01:50:16.237Z,73.46
2023-03-29T01:52:46.319Z,73.40
2023-03-29T01:55:18.003Z,73.63
2023-03-29T01:57:46.402Z,73.23
2023-03-29T02:00:18.740Z,72.34
2023-03-29T02:02:46.900Z,73.26
2023-03-29T02:05:15.705Z,73.27
2023-03-29T02:07:45.543Z,73.21
2023-03-29T02:10:14.004Z,72.31
2023-03-29T02:12:41.993Z,73.02
2023-03-29T02:15:13.840Z,73.31
2023-03-29T02:17:41.340Z,73.01
2023-03-29T02:20:14.756Z,73.07
2023-03-29T02:22:45.269Z,73.05
2023-03-29T02:25:12.491Z,72.75
2023-03-29T02:27:39.785Z,72.59
2023-03-29T02:30:08.509Z,72.00
2023-03-29T02:32:56.290Z,71.64
2023-03-29T02:35:35.825Z,72.35
2023-03-29T02:38:04.232Z,72.53
2023-03-29T02:40:32.890Z,72.03
2023-03-29T02:43:00.953Z,71.78
2023-03-29T02:45:28.728Z,71.66
2023-03-29T02:48:01.014Z,71.71
2023-03-29T02:50:32.515Z,71.81
2023-03-29T02:53:02.170Z,72.02
2023-03-29T02:55:34.288Z,71.81
2023-03-29T02:58:07.646Z,71.76
2023-03-29T03:00:37.857Z,71.35
2023-03-29T03:03:06.450Z,71.02
2023-03-29T03:05:33.805Z,70.69
2023-03-29T03:08:00.961Z,70.15
2023-03-29T03:10:27.919Z,69.67
2023-03-29T03:12:55.073Z,70.36
2023-03-29T03:15:22.326Z,70.43
2023-03-29T03:17:49.460Z,72.25
2023-03-29T03:20:17.046Z,71.05
2023-03-29T03:22:48.394Z,71.02
2023-03-29T03:25:16.367Z,71.56
2023-03-29T03:27:43.418Z,71.54
2023-03-29T03:30:11.047Z,71.50
2023-03-29T03:33:02.328Z,72.42
2023-03-29T03:35:56.475Z,72.56
2023-03-29T03:38:23.614Z,72.03
2023-03-29T03:40:56.396Z,73.12
2023-03-29T03:43:23.579Z,72.80
2023-03-29T03:45:51.658Z,72.57
2023-03-29T03:48:22.685Z,72.13
2023-03-29T03:50:56.581Z,71.75
2023-03-29T03:53:24.759Z,71.53
2023-03-29T03:56:15.858Z,70.80
2023-03-29T03:59:01.645Z,70.61
2023-03-29T04:01:31.031Z,70.29
2023-03-29T04:04:12.667Z,69.96
2023-03-29T04:06:42.472Z,69.66
2023-03-29T04:09:30.788Z,69.73
2023-03-29T04:12:10.736Z,69.67
2023-03-29T04:14:38.707Z,70.11
2023-03-29T04:17:09.239Z,70.46
2023-03-29T04:19:53.077Z,70.67
2023-03-29T04:22:20.132Z,70.58
2023-03-29T04:24:47.192Z,70.21
2023-03-29T04:27:37.060Z,69.95
2023-03-29T04:30:09.456Z,70.21
2023-03-29T04:32:57.395Z,69.84
2023-03-29T04:35:25.137Z,70.01
2023-03-29T04:37:54.132Z,70.26
2023-03-29T04:40:21.897Z,70.26
2023-03-29T04:42:59.651Z,70.79
2023-03-29T04:45:26.805Z,70.44
2023-03-29T04:48:05.798Z,71.21
2023-03-29T04:50:36.004Z,71.78
2023-03-29T04:53:03.160Z,72.15
2023-03-29T04:55:30.318Z,71.15
2023-03-29T04:58:02.287Z,71.23
2023-03-29T05:00:34.552Z,70.52
2023-03-29T05:03:09.554Z,70.15
2023-03-29T05:05:38.687Z,70.23
2023-03-29T05:08:06.766Z,70.44
2023-03-29T05:10:41.594Z,69.91
2023-03-29T05:13:09.161Z,69.87
2023-03-29T05:15:36.733Z,69.20
2023-03-29T05:18:04.720Z,68.55
2023-03-29T05:20:31.877Z,68.76
2023-03-29T05:23:00.034Z,68.74
2023-03-29T05:25:48.488Z,68.51
2023-03-29T05:28:15.627Z,68.54
2023-03-29T05:30:42.887Z,68.35
2023-03-29T05:33:17.929Z,68.52
2023-03-29T05:35:45.835Z,68.04
2023-03-29T05:38:13.358Z,68.08
2023-03-29T05:40:41.022Z,68.56
2023-03-29T05:43:27.314Z,67.90
2023-03-29T05:45:55.555Z,67.96
2023-03-29T05:48:24.409Z,67.72
2023-03-29T05:50:53.078Z,67.35
2023-03-29T05:53:21.359Z,67.09
2023-03-29T05:55:48.977Z,67.26
2023-03-29T05:58:19.664Z,66.96
2023-03-29T06:00:50.717Z,66.02
2023-03-29T06:03:29.320Z,65.83
2023-03-29T06:05:59.352Z,66.15
2023-03-29T06:08:27.444Z,65.73
2023-03-29T06:11:05.542Z,65.35
2023-03-29T06:14:04.685Z,65.32
2023-03-29T06:16:32.008Z,63.97
2023-03-29T06:18:59.033Z,64.36
2023-03-29T06:21:26.502Z,63.40
2023-03-29T06:23:54.020Z,61.83
2023-03-29T06:26:21.526Z,61.84
2023-03-29T06:28:51.919Z,62.86
2023-03-29T06:31:20.431Z,63.74
2023-03-29T06:33:49.626Z,62.54
2023-03-29T06:36:39.102Z,60.68
2023-03-29T06:39:06.113Z,60.73
2023-03-29T06:41:59.941Z,61.16
2023-03-29T06:44:54.071Z,62.57
2023-03-29T06:47:23.784Z,62.15
2023-03-29T06:49:50.696Z,61.51
2023-03-29T06:52:30.636Z,61.82
2023-03-29T06:54:57.552Z,61.42
2023-03-29T06:57:24.887Z,59.98
2023-03-29T06:59:52.686Z,60.09
2023-03-29T07:02:26.174Z,60.58
2023-03-29T07:05:02.041Z,60.20
2023-03-29T07:07:52.958Z,59.31
2023-03-29T07:10:33.947Z,58.32
2023-03-29T07:13:23.953Z,60.04
2023-03-29T07:15:51.858Z,58.49
2023-03-29T07:18:21.927Z,60.05
2023-03-29T07:20:49.158Z,60.23
2023-03-29T07:23:17.546Z,59.76
2023-03-29T07:25:44.759Z,60.88
2023-03-29T07:28:12.150Z,59.81
2023-03-29T07:30:39.187Z,56.12
2023-03-29T07:33:14.276Z,55.33
2023-03-29T07:35:50.365Z,55.61
2023-03-29T07:38:18.079Z,54.84
2023-03-29T07:40:48.406Z,56.86
2023-03-29T07:43:33.929Z,57.40
2023-03-29T07:46:01.926Z,55.30
2023-03-29T07:48:29.652Z,54.98
2023-03-29T07:51:00.354Z,56.60
2023-03-29T07:53:31.724Z,55.05
2023-03-29T07:55:59.877Z,53.18
2023-03-29T07:58:46.089Z,54.39
2023-03-29T08:01:17.154Z,54.01
2023-03-29T08:04:01.453Z,54.97
2023-03-29T08:06:58.231Z,54.05
2023-03-29T08:09:31.574Z,52.79
2023-03-29T08:11:58.514Z,52.11
2023-03-29T08:14:31.120Z,51.22
2023-03-29T08:17:04.084Z,51.10
2023-03-29T08:19:31.686Z,52.15
2023-03-29T08:22:06.124Z,54.07
2023-03-29T08:25:03.930Z,52.58
2023-03-29T08:27:34.268Z,53.58
2023-03-29T08:30:01.412Z,53.13
2023-03-29T08:32:28.836Z,52.43
2023-03-29T08:34:55.754Z,51.69
2023-03-29T08:37:27.588Z,51.53
2023-03-29T08:39:56.572Z,51.90
2023-03-29T08:43:02.585Z,51.64
2023-03-29T08:45:44.422Z,51.96
2023-03-29T08:48:28.172Z,48.44
2023-03-29T08:51:01.300Z,50.49
2023-03-29T08:53:35.153Z,50.52
2023-03-29T08:56:39.190Z,48.02
2023-03-29T08:59:19.131Z,48.86
2023-03-29T09:01:48.768Z,48.04
2023-03-29T09:04:18.334Z,46.68
2023-03-29T09:06:52.560Z,49.86
2023-03-29T09:09:23.545Z,48.95
2023-03-29T09:12:13.524Z,48.14
2023-03-29T09:14:40.497Z,49.13
2023-03-29T09:17:11.117Z,48.62
2023-03-29T09:19:53.584Z,47.90
2023-03-29T09:22:27.471Z,48.30
2023-03-29T09:25:13.620Z,48.75
2023-03-29T09:27:53.712Z,48.51
2023-03-29T09:30:31.667Z,47.25
2023-03-29T09:33:02.791Z,49.09
2023-03-29T09:35:54.508Z,46.94
2023-03-29T09:38:22.528Z,45.25
2023-03-29T09:40:51.869Z,44.16
2023-03-29T09:43:35.590Z,46.59
2023-03-29T09:46:15.257Z,44.46
2023-03-29T09:48:45.243Z,45.20
2023-03-29T09:51:12.544Z,46.79
2023-03-29T09:53:39.731Z,46.67
2023-03-29T09:56:32.981Z,42.79
2023-03-29T09:59:11.940Z,41.85
2023-03-29T10:01:41.222Z,44.34
2023-03-29T10:04:09.276Z,43.33
2023-03-29T10:06:49.094Z,40.36
2023-03-29T10:09:19.193Z,39.92
2023-03-29T10:11:47.563Z,38.18
2023-03-29T10:14:19.976Z,39.81
2023-03-29T10:16:53.891Z,39.81
2023-03-29T10:19:29.855Z,40.68
2023-03-29T10:21:58.689Z,38.72
2023-03-29T10:24:26.696Z,38.65
2023-03-29T10:26:56.680Z,41.30
2023-03-29T10:29:24.351Z,38.79
2023-03-29T10:31:51.578Z,35.42
2023-03-29T10:34:19.599Z,36.02
2023-03-29T10:36:57.048Z,40.04
2023-03-29T10:39:26.945Z,39.78
2023-03-29T10:41:54.083Z,37.77
2023-03-29T10:44:32.770Z,36.87
2023-03-29T10:47:14.295Z,38.36
2023-03-29T10:49:42.814Z,38.35
2023-03-29T10:52:12.664Z,38.75
2023-03-29T10:54:39.465Z,36.65
2023-03-29T10:57:11.137Z,39.28
2023-03-29T10:59:50.592Z,35.37
2023-03-29T11:02:17.969Z,34.38
2023-03-29T11:04:47.307Z,33.00
2023-03-29T11:07:26.599Z,36.09
2023-03-29T11:10:05.796Z,35.06
2023-03-29T11:12:43.259Z,36.74
2023-03-29T11:15:42.908Z,37.97
2023-03-29T11:18:21.754Z,37.49
2023-03-29T11:20:58.458Z,35.18
2023-03-29T11:23:43.792Z,35.88
2023-03-29T11:26:40.426Z,35.91
2023-03-29T11:29:10.535Z,34.36
2023-03-29T11:31:43.569Z,37.79
2023-03-29T11:34:29.392Z,36.14
2023-03-29T11:37:14.835Z,37.08
2023-03-29T11:39:53.919Z,37.20
2023-03-29T11:42:23.042Z,34.77
2023-03-29T11:44:54.641Z,34.64
2023-03-29T11:47:24.062Z,35.50
2023-03-29T11:49:56.944Z,36.78
2023-03-29T11:52:27.796Z,36.67
2023-03-29T11:54:55.157Z,37.35
2023-03-29T11:57:36.631Z,38.34
2023-03-29T12:00:18.422Z,36.87
2023-03-29T12:03:08.557Z,38.03
2023-03-29T12:05:39.225Z,32.84
2023-03-29T12:08:25.320Z,32.33
2023-03-29T12:11:11.538Z,32.24
2023-03-29T12:13:42.231Z,31.67
2023-03-29T12:16:25.966Z,33.18
2023-03-29T12:18:57.597Z,34.75
2023-03-29T12:21:26.135Z,34.84
2023-03-29T12:23:56.859Z,34.04
2023-03-29T12:26:39.926Z,33.08
2023-03-29T12:29:36.393Z,33.66
2023-03-29T12:32:21.335Z,32.83
2023-03-29T12:35:26.213Z,34.28
2023-03-29T12:38:16.569Z,32.77
2023-03-29T12:41:11.138Z,31.42
2023-03-29T12:44:14.506Z,32.46
2023-03-29T12:46:58.230Z,31.36
2023-03-29T12:49:29.246Z,31.90
2023-03-29T12:51:57.489Z,31.32
2023-03-29T12:54:28.141Z,31.41
2023-03-29T12:56:57.822Z,31.65
2023-03-29T12:59:25.322Z,30.99
2023-03-29T13:02:00.338Z,31.83
2023-03-29T13:04:37.132Z,32.00
2023-03-29T13:07:05.686Z,31.72
2023-03-29T13:09:37.268Z,33.56
2023-03-29T13:12:04.116Z,32.16
2023-03-29T13:14:32.485Z,32.90
2023-03-29T13:17:17.810Z,33.31
2023-03-29T13:20:01.267Z,32.49
2023-03-29T13:22:40.632Z,32.12
2023-03-29T13:25:16.752Z,31.81
2023-03-29T13:27:51.036Z,31.35
2023-03-29T13:30:27.360Z,31.43
2023-03-29T13:32:54.187Z,32.47
2023-03-29T13:35:44.828Z,32.55
2023-03-29T13:38:15.331Z,32.32
2023-03-29T13:40:44.348Z,32.91
2023-03-29T13:43:18.642Z,31.54
2023-03-29T13:45:57.669Z,30.57
2023-03-29T13:48:26.812Z,30.44
2023-03-29T13:50:53.829Z,31.04
2023-03-29T13:53:20.581Z,30.90
2023-03-29T13:55:50.630Z,29.56
2023-03-29T13:58:28.538Z,28.74
2023-03-29T14:01:00.792Z,29.60
2023-03-29T14:03:31.409Z,29.78
2023-03-29T14:06:02.396Z,29.78
2023-03-29T14:08:30.632Z,30.75
2023-03-29T14:11:00.754Z,30.41
2023-03-29T14:13:28.412Z,29.95
2023-03-29T14:15:58.964Z,29.77
2023-03-29T14:18:27.229Z,29.33
2023-03-29T14:20:55.658Z,29.30
2023-03-29T14:23:24.197Z,30.54
2023-03-29T14:25:51.352Z,29.40
2023-03-29T14:28:19.950Z,29.30
2023-03-29T14:30:47.608Z,27.83
2023-03-29T14:33:15.277Z,28.13
2023-03-29T14:35:42.321Z,29.07
2023-03-29T14:38:12.251Z,27.91
2023-03-29T14:40:39.404Z,28.91
2023-03-29T14:43:07.794Z,28.29
2023-03-29T14:45:34.943Z,28.38
2023-03-29T14:48:02.985Z,28.01
2023-03-29T14:50:30.946Z,28.92
2023-03-29T14:52:58.866Z,28.83
2023-03-29T14:55:26.839Z,27.64
2023-03-29T14:57:54.614Z,28.11
2023-03-29T15:00:27.597Z,28.45
2023-03-29T15:02:57.160Z,28.20
2023-03-29T15:05:38.356Z,28.44
2023-03-29T15:08:11.373Z,27.76
2023-03-29T15:10:38.763Z,28.65
2023-03-29T15:13:07.120Z,29.23
2023-03-29T15:15:36.438Z,29.79
2023-03-29T15:18:06.997Z,29.22
2023-03-29T15:20:36.232Z,29.85
2023-03-29T15:23:15.905Z,30.47
2023-03-29T15:25:52.081Z,30.73
2023-03-29T15:28:25.580Z,30.29
2023-03-29T15:31:07.166Z,30.34
2023-03-29T15:33:36.889Z,30.51
2023-03-29T15:36:05.456Z,30.05
2023-03-29T15:38:43.356Z,30.99
2023-03-29T15:41:13.035Z,31.43
2023-03-29T15:43:40.833Z,31.77
2023-03-29T15:46:08.433Z,32.15
2023-03-29T15:48:36.076Z,32.74
2023-03-29T15:51:06.135Z,33.56
2023-03-29T15:53:34.983Z,33.29
2023-03-29T15:56:03.516Z,33.07
2023-03-29T15:58:32.063Z,32.13
2023-03-29T16:01:11.596Z,32.41
2023-03-29T16:03:38.853Z,33.21
2023-03-29T16:06:06.113Z,33.35
2023-03-29T16:08:33.063Z,33.37
2023-03-29T16:11:00.321Z,33.92
2023-03-29T16:13:27.272Z,34.01
2023-03-29T16:15:54.220Z,33.16
2023-03-29T16:18:21.172Z,34.12
2023-03-29T16:20:48.122Z,33.63
2023-03-29T16:23:15.174Z,34.06
2023-03-29T16:25:42.943Z,33.89
2023-03-29T16:28:10.202Z,34.29
2023-03-29T16:30:38.347Z,34.44
2023-03-29T16:33:08.477Z,34.45
2023-03-29T16:35:39.495Z,34.71
2023-03-29T16:38:07.240Z,34.67
2023-03-29T16:40:34.418Z,34.84
2023-03-29T16:43:02.353Z,35.19
2023-03-29T16:45:29.636Z,35.55
2023-03-29T16:47:56.949Z,35.79
2023-03-29T16:50:24.076Z,35.91
2023-03-29T16:52:52.017Z,35.78
2023-03-29T16:55:19.176Z,36.53
2023-03-29T16:57:46.800Z,36.30
2023-03-29T17:00:15.417Z,36.87
2023-03-29T17:02:43.160Z,36.85
2023-03-29T17:05:11.349Z,37.21
2023-03-29T17:07:42.603Z,37.87
2023-03-29T17:10:13.147Z,37.53
2023-03-29T17:12:40.081Z,37.66
2023-03-29T17:15:07.961Z,38.10
2023-03-29T17:17:35.287Z,39.27
2023-03-29T17:20:05.955Z,39.86
2023-03-29T17:22:32.802Z,40.09
2023-03-29T17:24:59.954Z,40.49
2023-03-29T17:27:26.903Z,41.80
2023-03-29T17:29:53.772Z,41.91
2023-03-29T17:32:20.600Z,42.41
2023-03-29T17:34:47.867Z,43.02
2023-03-29T17:37:14.966Z,43.17
2023-03-29T17:39:42.892Z,44.22
2023-03-29T17:42:09.940Z,44.53
2023-03-29T17:44:36.890Z,44.52
2023-03-29T17:47:03.991Z,45.20
2023-03-29T17:49:31.414Z,45.29
2023-03-29T17:51:58.357Z,45.13
2023-03-29T17:54:25.552Z,44.93
2023-03-29T17:56:52.309Z,45.04
2023-03-29T17:59:19.214Z,44.99
2023-03-29T18:01:46.302Z,46.22
2023-03-29T18:04:13.317Z,46.08
2023-03-29T18:06:40.403Z,46.43
2023-03-29T18:09:07.298Z,46.88
2023-03-29T18:11:35.916Z,47.39
2023-03-29T18:14:05.526Z,47.58
2023-03-29T18:16:32.746Z,48.32
2023-03-29T18:19:02.549Z,48.38
2023-03-29T18:21:29.754Z,48.46
2023-03-29T18:23:57.235Z,48.89
2023-03-29T18:26:24.781Z,48.83
2023-03-29T18:28:52.045Z,48.79
2023-03-29T18:31:19.527Z,50.88
2023-03-29T18:33:47.291Z,50.53
2023-03-29T18:36:14.678Z,50.37
2023-03-29T18:38:42.973Z,50.38
2023-03-29T18:41:11.711Z,50.68
2023-03-29T18:43:39.914Z,50.43
2023-03-29T18:46:07.499Z,50.12
2023-03-29T18:48:38.295Z,50.09
2023-03-29T18:51:09.238Z,50.07
2023-03-29T18:53:36.706Z,50.38
2023-03-29T18:56:04.753Z,50.34
2023-03-29T18:58:32.154Z,50.27
2023-03-29T19:01:05.454Z,50.19
2023-03-29T19:03:33.932Z,50.36
2023-03-29T19:06:01.801Z,50.67
2023-03-29T19:08:29.047Z,50.89
2023-03-29T19:11:07.265Z,51.01
2023-03-29T19:13:34.970Z,51.38
2023-03-29T19:16:05.546Z,51.14
2023-03-29T19:18:33.449Z,51.05
2023-03-29T19:21:00.490Z,51.47
2023-03-29T19:23:27.843Z,51.34
2023-03-29T19:25:56.030Z,51.13
2023-03-29T19:28:23.893Z,51.34
2023-03-29T19:30:50.905Z,51.59
2023-03-29T19:33:18.028Z,51.18
2023-03-29T19:35:46.336Z,51.51
2023-03-29T19:38:13.238Z,51.03
2023-03-29T19:40:43.658Z,52.86
2023-03-29T19:43:15.929Z,54.45
2023-03-29T19:45:43.402Z,54.47
2023-03-29T19:50:40.165Z,53.65
2023-03-29T19:53:07.149Z,53.91
2023-03-29T19:55:34.362Z,54.37
2023-03-29T19:58:01.318Z,54.21
2023-03-29T20:00:28.046Z,54.60
2023-03-29T20:02:56.199Z,54.64
2023-03-29T20:05:23.614Z,54.55
2023-03-29T20:07:50.967Z,55.07
2023-03-29T20:10:17.924Z,54.96
2023-03-29T20:12:47.116Z,54.66
2023-03-29T20:15:14.169Z,54.52
2023-03-29T20:17:41.260Z,54.55
2023-03-29T20:20:09.986Z,54.03
2023-03-29T20:22:37.595Z,54.51
2023-03-29T20:25:04.847Z,54.50
2023-03-29T20:27:31.710Z,54.38
2023-03-29T20:29:58.640Z,54.77
2023-03-29T20:32:25.508Z,54.74
2023-03-29T20:34:52.742Z,54.78
2023-03-29T20:37:22.437Z,55.24
2023-03-29T20:39:49.407Z,55.30
2023-03-29T20:42:16.181Z,55.13
2023-03-29T20:44:49.958Z,56.03
2023-03-29T20:47:18.553Z,56.05
2023-03-29T20:49:45.604Z,55.83
2023-03-29T20:52:17.188Z,54.37
2023-03-29T20:54:45.029Z,53.81
2023-03-29T20:57:16.328Z,54.33
2023-03-29T20:59:43.855Z,56.93
2023-03-29T21:02:16.242Z,57.71
2023-03-29T21:04:44.496Z,56.90
2023-03-29T21:07:11.450Z,57.35
2023-03-29T21:09:39.527Z,56.77
2023-03-29T21:12:06.890Z,56.92
2023-03-29T21:14:33.736Z,57.49
2023-03-29T21:17:01.106Z,57.82
2023-03-29T21:19:28.661Z,55.65
2023-03-29T21:21:55.562Z,56.39
2023-03-29T21:24:22.455Z,57.06
2023-03-29T21:26:49.511Z,57.39
2023-03-29T21:29:16.432Z,57.91
2023-03-29T21:31:43.405Z,57.94
2023-03-29T21:34:10.568Z,58.64
2023-03-29T21:36:37.927Z,61.36
2023-03-29T21:39:05.301Z,61.43
2023-03-29T21:41:32.546Z,60.61
2023-03-29T21:43:59.847Z,60.42
2023-03-29T21:46:26.910Z,60.45
2023-03-29T21:48:54.129Z,60.05
2023-03-29T21:51:21.167Z,59.89
2023-03-29T21:53:48.361Z,59.70
2023-03-29T21:56:15.587Z,59.78
2023-03-29T21:58:42.634Z,60.29
2023-03-29T22:01:10.231Z,60.52
2023-03-29T22:03:38.076Z,59.99
2023-03-29T22:06:09.463Z,59.99
2023-03-29T22:08:38.424Z,60.35
2023-03-29T22:11:08.337Z,60.06
2023-03-29T22:13:35.496Z,58.88
2023-03-29T22:16:03.755Z,59.00
2023-03-29T22:18:52.184Z,59.24
2023-03-29T22:21:23.466Z,59.72
2023-03-29T22:23:52.171Z,60.13
2023-03-29T22:26:21.063Z,60.51
2023-03-29T22:28:47.906Z,60.44
2023-03-29T22:31:16.602Z,60.50
2023-03-29T22:33:43.754Z,60.45
2023-03-29T22:36:15.212Z,61.29
2023-03-29T22:38:42.559Z,62.48
2023-03-29T22:41:09.720Z,60.97
2023-03-29T22:43:37.277Z,60.75
2023-03-29T22:46:04.736Z,65.60
2023-03-29T22:48:31.743Z,64.27
2023-03-29T22:50:59.159Z,63.43
2023-03-29T22:53:26.820Z,63.30
2023-03-29T22:55:54.384Z,62.75
2023-03-29T22:58:21.438Z,62.09
2023-03-29T23:00:48.494Z,61.77
2023-03-29T23:03:15.548Z,61.90
2023-03-29T23:05:48.639Z,61.39
2023-03-29T23:08:16.097Z,61.88
2023-03-29T23:10:44.893Z,61.31
2023-03-29T23:13:13.168Z,61.17
2023-03-29T23:15:47.508Z,60.83
2023-03-29T23:18:17.916Z,60.37
2023-03-29T23:20:46.718Z,60.16
2023-03-29T23:23:15.272Z,59.79
2023-03-29T23:25:46.138Z,59.68
2023-03-29T23:28:13.716Z,59.72
2023-03-29T23:30:41.162Z,59.65
2023-03-29T23:33:10.148Z,59.49
2023-03-29T23:35:37.336Z,59.97
2023-03-29T23:38:05.297Z,59.52
2023-03-29T23:40:32.874Z,59.83
2023-03-29T23:42:59.966Z,59.76
2023-03-29T23:45:27.683Z,59.43
2023-03-29T23:47:54.777Z,59.42
2023-03-29T23:50:22.097Z,59.35
2023-03-29T23:52:50.987Z,59.10
2023-03-29T23:55:19.064Z,59.56
2023-03-29T23:57:46.118Z,60.20
